Garland, Texas
Current Conditions -  °F | °C
As of 11:15 PM on Friday 24 Oct 2014 (Local Time) from KADS Reporting Station
Clear Clear  
Wind Chill: 72°   Ceiling: Unl
Heat Index: 72°   Visibility: 10mi
Dew Point: 63°   Wind: 7mph
Humidity: 71%   Direction: 170°S
Pressure: 30.11"   Gusts: NA
Location:  32.91°N, 96.64°W
Report Text: KADS 250415Z AUTO 17006KT 10SM CLR 22/17 A3011 RMK AO2 T02240170
Loading
Personal Weather Stations






























Interactive Weather Map
Tropical Storm Tracking
New forecast layout! Learn more

10-Day Weather Forecast

Advertisements
Track Severe Weather on mobile